Grand Holiday — CQNH — position and weather

sailwx.info

Track history (hours):
 
Tides and Currents Weather Stations Pressure Air Temp Water Temp Dewpoint Dewpoint Depression Visibility Wind Speed Wind Dir Waves Ship Positions

Grand Holiday

Last reported at 2014-Aug-01 01:26 UTC. Time now 2014-Aug-01 11:59 UTC.
Position N 42°04' E 010°21'.

Length 222 m; draft 7.7 m.

Type: Passenger vessel. MMSI: 255803790.

Date/timePositionNaut miles runAvg speedWind from/ knotsBaromVisibWave heightAir tempDewpointWater temp
2014-Aug-01 01:26N 42°04' E 010°21'1615.2
2014-Aug-01 00:21N 42°09' E 009°60'1816.1
2014-Jul-31 23:15N 42°25' E 009°51'1115.8
2014-Jul-31 22:33N 42°36' E 009°47'2015.4
2014-Jul-31 21:16N 42°54' E 009°39'1215.0
2014-Jul-31 20:28N 43°06' E 009°36'1415.4
2014-Jul-31 19:34N 43°20' E 009°40'1615.7
2014-Jul-31 18:33N 43°35' E 009°45'1616.1
2014-Jul-31 17:34N 43°51' E 009°50'1313.4
2014-Jul-31 16:33N 44°04' E 009°51'2 2.1
2014-Jul-31 15:33N 44°06' E 009°50'0 0.0
2014-Jul-31 14:33N 44°06' E 009°50'0 0.0
2014-Jul-31 13:32N 44°06' E 009°50'0 0.0
2014-Jul-31 12:32N 44°06' E 009°50'0 0.0
2014-Jul-31 11:31N 44°06' E 009°50'0 0.0
2014-Jul-31 10:31N 44°06' E 009°50'0 0.0
2014-Jul-31 09:33N 44°06' E 009°50'0 0.0
2014-Jul-31 08:33N 44°06' E 009°50'0 0.0
2014-Jul-31 07:33N 44°06' E 009°50'0 0.0
2014-Jul-31 06:32N 44°06' E 009°50'0 0.0
2014-Jul-31 05:32N 44°06' E 009°50'0 0.3
2014-Jul-31 04:33N 44°06' E 009°50'8 7.9
2014-Jul-31 03:33N 43°60' E 009°56'1515.1
2014-Jul-31 02:33N 43°57' E 009°36'1110.9
2014-Jul-31 01:33N 43°59' E 009°21'1211.9
2014-Jul-31 00:34N 44°05' E 009°06'1211.8
2014-Jul-30 23:33N 44°11' E 008°52'1211.8
2014-Jul-30 22:33N 44°16' E 008°37'6 6.0
2014-Jul-30 21:33N 44°19' E 008°29'0 0.1
2014-Jul-30 20:29N 44°19' E 008°29'0 0.0
2014-Jul-30 19:32N 44°19' E 008°29'0 0.0
2014-Jul-30 18:32N 44°19' E 008°29'0 0.0
2014-Jul-30 17:28N 44°19' E 008°29'0 0.0
2014-Jul-30 16:31N 44°19' E 008°29'0 0.0
2014-Jul-30 15:30N 44°19' E 008°29'0 0.0
2014-Jul-30 14:33N 44°19' E 008°29'0 0.0
2014-Jul-30 13:29N 44°19' E 008°29'0 0.0
2014-Jul-30 12:29N 44°19' E 008°29'0 0.0
2014-Jul-30 11:32N 44°19' E 008°29'0 0.0
2014-Jul-30 10:28N 44°19' E 008°29'0 0.0
2014-Jul-30 09:31N 44°19' E 008°29'0 0.0
2014-Jul-30 08:30N 44°19' E 008°29'0 0.0
2014-Jul-30 07:33N 44°19' E 008°29'0 0.0
2014-Jul-30 06:32N 44°19' E 008°29'0 0.0
2014-Jul-30 05:29N 44°19' E 008°29'0 0.0
2014-Jul-30 04:33N 44°19' E 008°29'4 4.3
2014-Jul-30 03:33N 44°15' E 008°32'1110.3
2014-Jul-30 02:32N 44°04' E 008°32'1111.0
2014-Jul-30 01:33N 43°54' E 008°29'1111.5
2014-Jul-30 00:33N 43°44' E 008°20'2210.3
2014-Jul-29 22:25N 43°36' E 007°52'9 9.9
2014-Jul-29 21:33N 43°34' E 007°40'1010.1
2014-Jul-29 20:33N 43°37' E 007°27'7 7.2
2014-Jul-29 19:33N 43°42' E 007°19'0 0.0
2014-Jul-29 18:33N 43°42' E 007°19'0 0.0
2014-Jul-29 17:33N 43°42' E 007°19'0 0.0
2014-Jul-29 16:33N 43°42' E 007°19'0 0.0
2014-Jul-29 15:33N 43°42' E 007°19'0 0.0
2014-Jul-29 14:33N 43°42' E 007°19'0 0.0
2014-Jul-29 13:33N 43°42' E 007°19'0 0.1
2014-Jul-29 12:32N 43°42' E 007°19'0 0.0
2014-Jul-29 11:33N 43°42' E 007°19'0 0.0
2014-Jul-29 10:32N 43°42' E 007°19'0 0.1
2014-Jul-29 09:33N 43°42' E 007°19'0 0.0
2014-Jul-29 08:33N 43°42' E 007°19'0 0.0
2014-Jul-29 07:31N 43°42' E 007°19'0 0.1
2014-Jul-29 06:33N 43°42' E 007°19'0 0.1
2014-Jul-29 05:33N 43°42' E 007°19'7 7.2
2014-Jul-29 04:33N 43°35' E 007°18'10 9.5
2014-Jul-29 03:33N 43°25' E 007°19'10 9.6
2014-Jul-29 02:33N 43°17' E 007°12'10 9.8
2014-Jul-29 01:33N 43°10' E 007°03'10 9.7
2014-Jul-29 00:29N 43°02' E 006°53'9 9.7
2014-Jul-28 23:33N 42°58' E 006°42'1010.1
2014-Jul-28 22:31N 42°55' E 006°29'1413.7
2014-Jul-28 21:32N 42°54' E 006°10'1413.7
2014-Jul-28 20:32N 42°55' E 005°51'1414.3
2014-Jul-28 19:33N 43°00' E 005°34'1514.8
2014-Jul-28 18:33N 43°08' E 005°16'9 9.4
2014-Jul-28 17:33N 43°17' E 005°14'6 1.7
2014-Jul-28 14:14N 43°21' E 005°20'0 0.0
2014-Jul-28 10:30N 43°21' E 005°20'0 0.0
2014-Jul-28 06:33N 43°21' E 005°20'7 6.6
2014-Jul-28 05:33N 43°17' E 005°12'10 9.5
2014-Jul-28 04:33N 43°09' E 005°05'1210.3
2014-Jul-28 03:25N 42°59' E 004°57'1010.2
2014-Jul-28 02:29N 42°52' E 004°48'9 9.7
2014-Jul-28 01:32N 42°45' E 004°40'1110.2
2014-Jul-28 00:26N 42°37' E 004°30'910.3
2014-Jul-27 23:32N 42°29' E 004°22'1110.9
2014-Jul-27 22:33N 42°21' E 004°13'1616.0
2014-Jul-27 21:33N 42°09' E 003°59'3115.5
2014-Jul-27 19:33N 41°45' E 003°32'1515.0
2014-Jul-27 18:33N 41°38' E 003°15'1615.8
2014-Jul-27 17:33N 41°31' E 002°56'35 3.8
2014-Jul-27 08:15N 41°21' E 002°11'0 0.0
2014-Jul-27 06:20N 41°21' E 002°11'2 2.9
2014-Jul-27 05:33N 41°19' E 002°10'8 8.4
2014-Jul-27 04:33N 41°16' E 002°21'1010.3
2014-Jul-27 03:33N 41°17' E 002°34'1010.4
2014-Jul-27 02:33N 41°17' E 002°48'1110.6
2014-Jul-27 01:33N 41°17' E 003°02'1211.7
2014-Jul-27 00:33N 41°17' E 003°18'1111.1
2014-Jul-26 23:33N 41°17' E 003°33'1411.1
2014-Jul-26 22:18N 41°17' E 003°51'910.5
2014-Jul-26 21:30N 41°17' E 004°02'1510.6
2014-Jul-26 20:06N 41°18' E 004°22'3910.6
2014-Jul-26 16:21N 41°18' E 005°15'1210.2
2014-Jul-26 15:08N 41°18' E 005°31'1710.3
2014-Jul-26 13:28N 41°18' E 005°54'3012.6
2014-Jul-26 11:05N 41°18' E 006°34'5615.2
2014-Jul-26 07:23N 41°18' E 007°49'1113.6
2014-Jul-26 06:33N 41°19' E 008°04'1715.2
2014-Jul-26 05:26N 41°18' E 008°26'7915.4
2014-Jul-26 00:20N 41°37' E 010°09'1215.4
2014-Jul-25 23:33N 41°41' E 010°24'1515.1
2014-Jul-25 22:33N 41°47' E 010°42'1515.2
2014-Jul-25 21:34N 41°53' E 011°01'88 3.6
2014-Jul-24 21:14N 42°56' E 009°37'1415.2
2014-Jul-24 20:17N 43°10' E 009°37'1215.8
2014-Jul-24 19:33N 43°22' E 009°40'1616.2
2014-Jul-24 18:33N 43°37' E 009°46'1616.2
2014-Jul-24 17:33N 43°53' E 009°51'1212.5
2014-Jul-24 16:33N 44°05' E 009°50'0 0.3
2014-Jul-24 15:33N 44°05' E 009°49'0 0.0
2014-Jul-24 14:32N 44°05' E 009°49'0 0.0
2014-Jul-24 13:32N 44°05' E 009°49'0 0.0
2014-Jul-24 12:31N 44°05' E 009°49'0 0.0
2014-Jul-24 11:31N 44°05' E 009°49'0 0.0
2014-Jul-24 10:33N 44°05' E 009°49'0 0.0
2014-Jul-24 09:33N 44°05' E 009°49'0 0.0
2014-Jul-24 08:33N 44°05' E 009°49'0 0.0
2014-Jul-24 07:32N 44°05' E 009°49'0 0.0
2014-Jul-24 06:29N 44°05' E 009°49'0 0.0
2014-Jul-24 05:31N 44°05' E 009°49'1 0.9
2014-Jul-24 04:33N 44°05' E 009°51'8 7.6
2014-Jul-24 03:33N 43°58' E 009°53'1212.0
2014-Jul-24 02:33N 43°55' E 009°37'1111.4
2014-Jul-24 01:33N 43°59' E 009°22'1212.2
2014-Jul-24 00:33N 44°04' E 009°07'1212.1
2014-Jul-23 23:33N 44°10' E 008°52'1211.6
2014-Jul-23 22:33N 44°16' E 008°39'7 6.6
2014-Jul-23 21:30N 44°19' E 008°29'0 0.0
2014-Jul-23 20:23N 44°19' E 008°29'0 0.0
2014-Jul-23 19:29N 44°19' E 008°29'0 0.0
2014-Jul-23 18:31N 44°19' E 008°29'0 0.0
2014-Jul-23 17:31N 44°19' E 008°29'0 0.0
2014-Jul-23 16:28N 44°19' E 008°29'0 0.0
2014-Jul-23 15:33N 44°19' E 008°29'0 0.0
2014-Jul-23 14:27N 44°19' E 008°29'0 0.0
2014-Jul-23 13:32N 44°19' E 008°29'0 0.0
2014-Jul-23 12:26N 44°19' E 008°29'0 0.0
2014-Jul-23 11:31N 44°19' E 008°29'0 0.0
2014-Jul-23 10:28N 44°19' E 008°29'0 0.0
2014-Jul-23 09:31N 44°19' E 008°29'0 0.0
2014-Jul-23 08:33N 44°19' E 008°29'0 0.0
2014-Jul-23 07:33N 44°19' E 008°29'0 0.0
2014-Jul-23 06:32N 44°19' E 008°29'0 0.0
2014-Jul-23 05:32N 44°19' E 008°29'0 0.0
2014-Jul-23 04:33N 44°19' E 008°29'5 4.7
2014-Jul-23 03:34N 44°14' E 008°32'1110.6
2014-Jul-23 02:33N 44°04' E 008°32'1010.2
2014-Jul-23 01:33N 43°54' E 008°29'1010.6
2014-Jul-23 00:33N 43°45' E 008°21'1010.1
2014-Jul-22 23:33N 43°40' E 008°09'1110.6
2014-Jul-22 22:33N 43°37' E 007°55'1110.5
2014-Jul-22 21:33N 43°35' E 007°41'1010.4
2014-Jul-22 20:34N 43°37' E 007°27'8 7.2
2014-Jul-22 19:31N 43°42' E 007°19'0 0.1
2014-Jul-22 18:31N 43°42' E 007°19'0 0.0
2014-Jul-22 17:24N 43°42' E 007°19'0 0.0
2014-Jul-22 16:24N 43°42' E 007°19'0 0.0
2014-Jul-22 15:29N 43°42' E 007°19'0 0.0
2014-Jul-22 14:29N 43°42' E 007°19'0 0.1
2014-Jul-22 13:31N 43°42' E 007°19'0 0.0
2014-Jul-22 12:28N 43°42' E 007°19'0 0.0
2014-Jul-22 11:33N 43°42' E 007°19'0 0.1
2014-Jul-22 10:33N 43°42' E 007°19'0 0.0
2014-Jul-22 09:27N 43°42' E 007°19'0 0.1
2014-Jul-22 08:32N 43°42' E 007°19'0 0.1
2014-Jul-22 07:32N 43°42' E 007°19'0 0.0
2014-Jul-22 06:25N 43°42' E 007°19'0 0.1
2014-Jul-22 05:33N 43°42' E 007°19'4 4.4
2014-Jul-22 04:33N 43°37' E 007°18'8 8.4
2014-Jul-22 03:33N 43°29' E 007°19'9 8.9
2014-Jul-22 02:33N 43°20' E 007°17'9 9.4
2014-Jul-22 01:33N 43°13' E 007°08'  
Track history (hours):
 
Tides and Currents Weather Stations Pressure Air Temp Water Temp Dewpoint Dewpoint Depression Visibility Wind Speed Wind Dir Waves Ship Positions

Grand Holiday

Last reported at 2014-Aug-01 01:26 UTC. Time now 2014-Aug-01 11:59 UTC.
Position N 42°04' E 010°21'.

Length 222 m; draft 7.7 m.

Type: Passenger vessel. MMSI: 255803790.

Date/timePositionNaut miles runAvg speedWind from/ knotsBaromVisibWave heightAir tempDewpointWater temp
2014-Aug-01 01:26N 42°04' E 010°21'1615.2
2014-Aug-01 00:21N 42°09' E 009°60'1816.1
2014-Jul-31 23:15N 42°25' E 009°51'1115.8
2014-Jul-31 22:33N 42°36' E 009°47'2015.4
2014-Jul-31 21:16N 42°54' E 009°39'1215.0
2014-Jul-31 20:28N 43°06' E 009°36'1415.4
2014-Jul-31 19:34N 43°20' E 009°40'1615.7
2014-Jul-31 18:33N 43°35' E 009°45'1616.1
2014-Jul-31 17:34N 43°51' E 009°50'1313.4
2014-Jul-31 16:33N 44°04' E 009°51'2 2.1
2014-Jul-31 15:33N 44°06' E 009°50'0 0.0
2014-Jul-31 14:33N 44°06' E 009°50'0 0.0
2014-Jul-31 13:32N 44°06' E 009°50'0 0.0
2014-Jul-31 12:32N 44°06' E 009°50'0 0.0
2014-Jul-31 11:31N 44°06' E 009°50'0 0.0
2014-Jul-31 10:31N 44°06' E 009°50'0 0.0
2014-Jul-31 09:33N 44°06' E 009°50'0 0.0
2014-Jul-31 08:33N 44°06' E 009°50'0 0.0
2014-Jul-31 07:33N 44°06' E 009°50'0 0.0
2014-Jul-31 06:32N 44°06' E 009°50'0 0.0
2014-Jul-31 05:32N 44°06' E 009°50'0 0.3
2014-Jul-31 04:33N 44°06' E 009°50'8 7.9
2014-Jul-31 03:33N 43°60' E 009°56'1515.1
2014-Jul-31 02:33N 43°57' E 009°36'1110.9
2014-Jul-31 01:33N 43°59' E 009°21'1211.9
2014-Jul-31 00:34N 44°05' E 009°06'1211.8
2014-Jul-30 23:33N 44°11' E 008°52'1211.8
2014-Jul-30 22:33N 44°16' E 008°37'6 6.0
2014-Jul-30 21:33N 44°19' E 008°29'0 0.1
2014-Jul-30 20:29N 44°19' E 008°29'0 0.0
2014-Jul-30 19:32N 44°19' E 008°29'0 0.0
2014-Jul-30 18:32N 44°19' E 008°29'0 0.0
2014-Jul-30 17:28N 44°19' E 008°29'0 0.0
2014-Jul-30 16:31N 44°19' E 008°29'0 0.0
2014-Jul-30 15:30N 44°19' E 008°29'0 0.0
2014-Jul-30 14:33N 44°19' E 008°29'0 0.0
2014-Jul-30 13:29N 44°19' E 008°29'0 0.0
2014-Jul-30 12:29N 44°19' E 008°29'0 0.0
2014-Jul-30 11:32N 44°19' E 008°29'0 0.0
2014-Jul-30 10:28N 44°19' E 008°29'0 0.0
2014-Jul-30 09:31N 44°19' E 008°29'0 0.0
2014-Jul-30 08:30N 44°19' E 008°29'0 0.0
2014-Jul-30 07:33N 44°19' E 008°29'0 0.0
2014-Jul-30 06:32N 44°19' E 008°29'0 0.0
2014-Jul-30 05:29N 44°19' E 008°29'0 0.0
2014-Jul-30 04:33N 44°19' E 008°29'4 4.3
2014-Jul-30 03:33N 44°15' E 008°32'1110.3
2014-Jul-30 02:32N 44°04' E 008°32'1111.0
2014-Jul-30 01:33N 43°54' E 008°29'1111.5
2014-Jul-30 00:33N 43°44' E 008°20'2210.3
2014-Jul-29 22:25N 43°36' E 007°52'9 9.9
2014-Jul-29 21:33N 43°34' E 007°40'1010.1
2014-Jul-29 20:33N 43°37' E 007°27'7 7.2
2014-Jul-29 19:33N 43°42' E 007°19'0 0.0
2014-Jul-29 18:33N 43°42' E 007°19'0 0.0
2014-Jul-29 17:33N 43°42' E 007°19'0 0.0
2014-Jul-29 16:33N 43°42' E 007°19'0 0.0
2014-Jul-29 15:33N 43°42' E 007°19'0 0.0
2014-Jul-29 14:33N 43°42' E 007°19'0 0.0
2014-Jul-29 13:33N 43°42' E 007°19'0 0.1
2014-Jul-29 12:32N 43°42' E 007°19'0 0.0
2014-Jul-29 11:33N 43°42' E 007°19'0 0.0
2014-Jul-29 10:32N 43°42' E 007°19'0 0.1
2014-Jul-29 09:33N 43°42' E 007°19'0 0.0
2014-Jul-29 08:33N 43°42' E 007°19'0 0.0
2014-Jul-29 07:31N 43°42' E 007°19'0 0.1
2014-Jul-29 06:33N 43°42' E 007°19'0 0.1
2014-Jul-29 05:33N 43°42' E 007°19'7 7.2
2014-Jul-29 04:33N 43°35' E 007°18'10 9.5
2014-Jul-29 03:33N 43°25' E 007°19'10 9.6
2014-Jul-29 02:33N 43°17' E 007°12'10 9.8
2014-Jul-29 01:33N 43°10' E 007°03'10 9.7
2014-Jul-29 00:29N 43°02' E 006°53'9 9.7
2014-Jul-28 23:33N 42°58' E 006°42'1010.1
2014-Jul-28 22:31N 42°55' E 006°29'1413.7
2014-Jul-28 21:32N 42°54' E 006°10'1413.7
2014-Jul-28 20:32N 42°55' E 005°51'1414.3
2014-Jul-28 19:33N 43°00' E 005°34'1514.8
2014-Jul-28 18:33N 43°08' E 005°16'9 9.4
2014-Jul-28 17:33N 43°17' E 005°14'6 1.7
2014-Jul-28 14:14N 43°21' E 005°20'0 0.0
2014-Jul-28 10:30N 43°21' E 005°20'0 0.0
2014-Jul-28 06:33N 43°21' E 005°20'7 6.6
2014-Jul-28 05:33N 43°17' E 005°12'10 9.5
2014-Jul-28 04:33N 43°09' E 005°05'1210.3
2014-Jul-28 03:25N 42°59' E 004°57'1010.2
2014-Jul-28 02:29N 42°52' E 004°48'9 9.7
2014-Jul-28 01:32N 42°45' E 004°40'1110.2
2014-Jul-28 00:26N 42°37' E 004°30'910.3
2014-Jul-27 23:32N 42°29' E 004°22'1110.9
2014-Jul-27 22:33N 42°21' E 004°13'1616.0
2014-Jul-27 21:33N 42°09' E 003°59'3115.5
2014-Jul-27 19:33N 41°45' E 003°32'1515.0
2014-Jul-27 18:33N 41°38' E 003°15'1615.8
2014-Jul-27 17:33N 41°31' E 002°56'35 3.8
2014-Jul-27 08:15N 41°21' E 002°11'0 0.0
2014-Jul-27 06:20N 41°21' E 002°11'2 2.9
2014-Jul-27 05:33N 41°19' E 002°10'8 8.4
2014-Jul-27 04:33N 41°16' E 002°21'1010.3
2014-Jul-27 03:33N 41°17' E 002°34'1010.4
2014-Jul-27 02:33N 41°17' E 002°48'1110.6
2014-Jul-27 01:33N 41°17' E 003°02'1211.7
2014-Jul-27 00:33N 41°17' E 003°18'1111.1
2014-Jul-26 23:33N 41°17' E 003°33'1411.1
2014-Jul-26 22:18N 41°17' E 003°51'910.5
2014-Jul-26 21:30N 41°17' E 004°02'1510.6
2014-Jul-26 20:06N 41°18' E 004°22'3910.6
2014-Jul-26 16:21N 41°18' E 005°15'1210.2
2014-Jul-26 15:08N 41°18' E 005°31'1710.3
2014-Jul-26 13:28N 41°18' E 005°54'3012.6
2014-Jul-26 11:05N 41°18' E 006°34'5615.2
2014-Jul-26 07:23N 41°18' E 007°49'1113.6
2014-Jul-26 06:33N 41°19' E 008°04'1715.2
2014-Jul-26 05:26N 41°18' E 008°26'7915.4
2014-Jul-26 00:20N 41°37' E 010°09'1215.4
2014-Jul-25 23:33N 41°41' E 010°24'1515.1
2014-Jul-25 22:33N 41°47' E 010°42'1515.2
2014-Jul-25 21:34N 41°53' E 011°01'88 3.6
2014-Jul-24 21:14N 42°56' E 009°37'1415.2
2014-Jul-24 20:17N 43°10' E 009°37'1215.8
2014-Jul-24 19:33N 43°22' E 009°40'1616.2
2014-Jul-24 18:33N 43°37' E 009°46'1616.2
2014-Jul-24 17:33N 43°53' E 009°51'1212.5
2014-Jul-24 16:33N 44°05' E 009°50'0 0.3
2014-Jul-24 15:33N 44°05' E 009°49'0 0.0
2014-Jul-24 14:32N 44°05' E 009°49'0 0.0
2014-Jul-24 13:32N 44°05' E 009°49'0 0.0
2014-Jul-24 12:31N 44°05' E 009°49'0 0.0
2014-Jul-24 11:31N 44°05' E 009°49'0 0.0
2014-Jul-24 10:33N 44°05' E 009°49'0 0.0
2014-Jul-24 09:33N 44°05' E 009°49'0 0.0
2014-Jul-24 08:33N 44°05' E 009°49'0 0.0
2014-Jul-24 07:32N 44°05' E 009°49'0 0.0
2014-Jul-24 06:29N 44°05' E 009°49'0 0.0
2014-Jul-24 05:31N 44°05' E 009°49'1 0.9
2014-Jul-24 04:33N 44°05' E 009°51'8 7.6
2014-Jul-24 03:33N 43°58' E 009°53'1212.0
2014-Jul-24 02:33N 43°55' E 009°37'1111.4
2014-Jul-24 01:33N 43°59' E 009°22'1212.2
2014-Jul-24 00:33N 44°04' E 009°07'1212.1
2014-Jul-23 23:33N 44°10' E 008°52'1211.6
2014-Jul-23 22:33N 44°16' E 008°39'7 6.6
2014-Jul-23 21:30N 44°19' E 008°29'0 0.0
2014-Jul-23 20:23N 44°19' E 008°29'0 0.0
2014-Jul-23 19:29N 44°19' E 008°29'0 0.0
2014-Jul-23 18:31N 44°19' E 008°29'0 0.0
2014-Jul-23 17:31N 44°19' E 008°29'0 0.0
2014-Jul-23 16:28N 44°19' E 008°29'0 0.0
2014-Jul-23 15:33N 44°19' E 008°29'0 0.0
2014-Jul-23 14:27N 44°19' E 008°29'0 0.0
2014-Jul-23 13:32N 44°19' E 008°29'0 0.0
2014-Jul-23 12:26N 44°19' E 008°29'0 0.0
2014-Jul-23 11:31N 44°19' E 008°29'0 0.0
2014-Jul-23 10:28N 44°19' E 008°29'0 0.0
2014-Jul-23 09:31N 44°19' E 008°29'0 0.0
2014-Jul-23 08:33N 44°19' E 008°29'0 0.0
2014-Jul-23 07:33N 44°19' E 008°29'0 0.0
2014-Jul-23 06:32N 44°19' E 008°29'0 0.0
2014-Jul-23 05:32N 44°19' E 008°29'0 0.0
2014-Jul-23 04:33N 44°19' E 008°29'5 4.7
2014-Jul-23 03:34N 44°14' E 008°32'1110.6
2014-Jul-23 02:33N 44°04' E 008°32'1010.2
2014-Jul-23 01:33N 43°54' E 008°29'1010.6
2014-Jul-23 00:33N 43°45' E 008°21'1010.1
2014-Jul-22 23:33N 43°40' E 008°09'1110.6
2014-Jul-22 22:33N 43°37' E 007°55'1110.5
2014-Jul-22 21:33N 43°35' E 007°41'1010.4
2014-Jul-22 20:34N 43°37' E 007°27'8 7.2
2014-Jul-22 19:31N 43°42' E 007°19'0 0.1
2014-Jul-22 18:31N 43°42' E 007°19'0 0.0
2014-Jul-22 17:24N 43°42' E 007°19'0 0.0
2014-Jul-22 16:24N 43°42' E 007°19'0 0.0
2014-Jul-22 15:29N 43°42' E 007°19'0 0.0
2014-Jul-22 14:29N 43°42' E 007°19'0 0.1
2014-Jul-22 13:31N 43°42' E 007°19'0 0.0
2014-Jul-22 12:28N 43°42' E 007°19'0 0.0
2014-Jul-22 11:33N 43°42' E 007°19'0 0.1
2014-Jul-22 10:33N 43°42' E 007°19'0 0.0
2014-Jul-22 09:27N 43°42' E 007°19'0 0.1
2014-Jul-22 08:32N 43°42' E 007°19'0 0.1
2014-Jul-22 07:32N 43°42' E 007°19'0 0.0
2014-Jul-22 06:25N 43°42' E 007°19'0 0.1
2014-Jul-22 05:33N 43°42' E 007°19'4 4.4
2014-Jul-22 04:33N 43°37' E 007°18'8 8.4
2014-Jul-22 03:33N 43°29' E 007°19'9 8.9
2014-Jul-22 02:33N 43°20' E 007°17'9 9.4
2014-Jul-22 01:33N 43°13' E 007°08'  

Dump ship's entire track history